Aérodrome :
LOGIN :

S'inscrire | Disclaimer

   EN    FR    IT 

 










Légende :    VFR   VFR Marginal   IFR   IFR Intensif   IFR Très Intensif
Visi : 
Plafond : 
>= 8 km
>= 3000ft
5 à 8 km
1000 à 3000 ft
1500m à 5 km
500 à 1000 ft
800 à 1500m
200 à 500 ft
< 800m
< 200 ft
Symboles :   Orages  Brouillard  Fortes neiges  Fortes précipitations  Vent > 20 kt
SIGMETs :   Divers  Orages  Givrage  Turbulence  Onde Orograph.  Cendres Volcan.







- Altitude de l'aérodrome : 37 ft


EHVL - Vlieland Heliport

DERNIER METAR :
  • 281159Z AUTO 34010KT 9999 FEW020 SCT024 OVC054 10/04 Q1013 WHT

METARs EXPIRÉS :
  • 281155Z AUTO 34009KT 9999 FEW022 OVC053 10/04 Q1013 BLU
  • 281136Z AUTO 34010KT 9999 FEW020 SCT043 BKN056 10/03 Q1013 BLU
  • 281126Z AUTO 34010KT 9999 SCT020 SCT024 BKN045 10/04 Q1013 WHT
  • 281117Z AUTO 33010KT 9999 FEW021 SCT026 BKN048 10/04 Q1013 BLU
  • 281110Z AUTO 33010KT 9999 SCT021 BKN049 BKN061 10/04 Q1013 WHT
  • 281056Z AUTO 34011KT 9999 FEW021 OVC055 09/03 Q1013 BLU
  • 281055Z AUTO 34011KT 9999 SCT021 SCT026 BKN031 10/04 Q1013 WHT
  • 281043Z AUTO 33011KT 9999 FEW020 SCT037 OVC056 11/04 Q1013 BLU
  • 281028Z AUTO 34012KT 9999 SCT020 SCT027 BKN039 09/04 Q1013 WHT
  • 281010Z AUTO 33014KT 9999 FEW016 SCT019 BKN047 09/05 Q1013 WHT
  • 280955Z AUTO 32013KT 9999 FEW016 OVC050 10/05 Q1013 BLU
  • 280945Z AUTO 32013KT 9999 FEW016 OVC050 09/04 Q1013 BLU
  • 280934Z AUTO 32013KT 9999 FEW017 SCT020 OVC051 10/05 Q1013 WHT
  • 280925Z AUTO 32013KT 9999 SCT020 SCT025 OVC050 10/04 Q1013 WHT
  • 280911Z AUTO 32014KT 9999 FEW021 SCT050 10/04 Q1013 BLU
  • 280903Z AUTO 32012KT 9999 SCT020 SCT024 09/04 Q1013 WHT

Prévision TAF périmée.
Pas de NOTAMs connus pour ce terrain.



MET'MAP, la Météo Aéronautique d'un coup d'oeil ! - Copyright ORBIFLY Décembre 2007 - Disclaimer

ORBIFLY MET'MAP TEAM :

Programmation & Développement : Alexandra Zaïnal
Conception & Développement : Baudouin d'Aumeries
Co-Programmation & Développement : Marc-Olivier Méhu
Soutien technique & logistique : Manuel Goepfert

Contact : metmap@orbifly.com




SOURCES & CREDITS :

   NOAA